Terminal Aerodrome Forecast
Issued by NWS Wilmington, NC

Home | Current Version | Previous Version | Text Only | Print | Product List | Glossary On
Versions: 1 2 3 4 5 6 7 8 9 10 11 12 13 14 15 16 17 18 19 20 21 22 23 24
000
FTUS42 KILM 170001 CCB
TAFFLO
TAF COR
KFLO 170001Z 1700/1724 VRB08KT 6SM -TSRA SCT025CB BKN035 OVC060
     FM170200 14003KT P6SM BKN045 OVC100
     FM170700 00000KT 5SM BR BKN250
      TEMPO 1709/1712 2SM BR SCT003
     FM171300 15003KT P6SM BKN150
     FM171800 19006KT P6SM VCTS FEW030CB BKN045 PROB30 1720/1724
      VRB15G25KT 3SM TSRA BKN025CB=

USA.gov is the U.S. government's official web portal to all federal, state and local government web resources and services.